createdAt,value
2019-01-11T17:54:46.402Z,38.10
2019-01-11T18:00:09.890Z,38.60
2019-01-11T18:05:30.308Z,32.87
2019-01-11T18:11:04.045Z,37.33
2019-01-11T18:16:24.949Z,35.47
2019-01-11T18:21:45.559Z,32.30
2019-01-11T18:27:05.965Z,34.73
2019-01-11T18:32:26.803Z,38.03
2019-01-11T18:37:47.657Z,29.43
2019-01-11T18:43:08.350Z,32.20
2019-01-11T18:48:33.049Z,39.23
2019-01-11T18:53:53.521Z,42.37
2019-01-11T18:59:14.050Z,33.80
2019-01-11T19:04:34.409Z,37.53
2019-01-11T19:09:55.451Z,37.43
2019-01-11T19:15:21.609Z,35.03
2019-01-11T19:20:41.785Z,31.73
2019-01-11T19:26:02.238Z,32.00
2019-01-11T19:31:23.237Z,37.00
2019-01-11T19:36:43.977Z,34.90
2019-01-11T19:42:04.473Z,33.80
2019-01-11T19:47:25.980Z,30.10
2019-01-11T19:52:48.070Z,33.93
2019-01-11T19:58:08.914Z,33.17
2019-01-11T20:03:29.979Z,31.60
2019-01-11T20:08:50.594Z,29.90
2019-01-11T20:14:11.224Z,33.87
2019-01-11T20:19:32.053Z,33.97
2019-01-11T20:24:55.441Z,29.67
2019-01-11T20:30:24.005Z,32.50
2019-01-11T20:35:44.857Z,29.80
2019-01-11T20:41:05.906Z,28.40
2019-01-11T20:46:26.646Z,24.57
2019-01-11T20:51:47.286Z,28.73
2019-01-11T20:57:07.831Z,26.40
2019-01-11T21:02:28.975Z,28.13
2019-01-11T21:07:49.396Z,26.50
2019-01-11T21:13:09.865Z,25.23
2019-01-11T21:18:30.738Z,27.03
2019-01-11T21:23:51.511Z,29.83
2019-01-11T21:29:11.826Z,25.77
2019-01-11T21:34:32.198Z,25.97
